createdAt,value
2018-06-17T00:01:14.547Z,85.60
2018-06-17T00:03:43.878Z,86.00
2018-06-17T00:06:13.082Z,86.30
2018-06-17T00:08:41.643Z,86.70
2018-06-17T00:11:10.124Z,87.50
2018-06-17T00:13:39.137Z,86.70
2018-06-17T00:16:07.671Z,87.50
2018-06-17T00:18:36.181Z,87.50
2018-06-17T00:21:11.316Z,88.10
2018-06-17T00:23:40.720Z,87.80
2018-06-17T00:26:09.229Z,88.20
2018-06-17T00:28:37.959Z,88.20
2018-06-17T00:31:06.812Z,88.60
2018-06-17T01:18:47.067Z,89.00
2018-06-17T01:34:15.276Z,88.20
2018-06-17T02:46:17.792Z,82.20
2018-06-17T02:49:17.043Z,82.90
2018-06-17T02:57:59.344Z,81.20
2018-06-17T03:09:58.773Z,80.70
2018-06-17T03:27:52.045Z,81.00
2018-06-17T03:32:41.190Z,81.10
2018-06-17T03:35:33.470Z,80.80
2018-06-17T03:41:07.241Z,81.10
2018-06-17T03:54:07.310Z,80.20
2018-06-17T04:06:36.194Z,80.70
2018-06-17T04:09:11.043Z,81.00
2018-06-17T04:11:39.891Z,80.30
2018-06-17T04:14:08.685Z,80.60
2018-06-17T04:16:40.384Z,81.30
2018-06-17T04:19:12.733Z,81.40
2018-06-17T04:21:43.109Z,81.50
2018-06-17T04:24:12.520Z,80.60
2018-06-17T04:27:06.400Z,80.70
2018-06-17T04:29:35.820Z,80.60
2018-06-17T04:32:04.568Z,80.60
2018-06-17T04:34:39.758Z,80.40
2018-06-17T04:37:09.314Z,80.70
2018-06-17T04:39:38.034Z,80.70
2018-06-17T04:42:11.866Z,80.80
2018-06-17T04:44:54.198Z,80.50
2018-06-17T04:47:24.207Z,80.60
2018-06-17T04:49:52.917Z,80.90
2018-06-17T04:52:25.028Z,80.90
2018-06-17T04:54:58.680Z,81.40
2018-06-17T04:57:30.481Z,81.00
2018-06-17T05:00:21.113Z,82.10
2018-06-17T05:02:49.763Z,82.00
2018-06-17T05:05:18.292Z,82.40
2018-06-17T05:07:46.946Z,83.30
2018-06-17T05:10:15.725Z,83.80
2018-06-17T05:12:44.227Z,83.60
2018-06-17T05:15:12.726Z,83.40
2018-06-17T05:17:41.491Z,84.00
2018-06-17T05:20:10.073Z,83.60
2018-06-17T05:22:38.794Z,82.80
2018-06-17T05:25:07.835Z,82.90
2018-06-17T05:27:36.385Z,83.00
2018-06-17T05:30:05.578Z,82.50
2018-06-17T05:32:34.100Z,82.60
2018-06-17T05:35:02.778Z,81.80
2018-06-17T05:37:31.436Z,81.30
2018-06-17T05:40:00.190Z,82.10
2018-06-17T05:42:29.282Z,81.20
2018-06-17T05:44:57.798Z,80.10
2018-06-17T05:47:29.215Z,79.40
2018-06-17T05:49:59.012Z,79.20
2018-06-17T05:52:42.645Z,78.10
2018-06-17T05:55:17.007Z,77.70
2018-06-17T05:57:45.562Z,76.90
2018-06-17T06:03:03.800Z,74.60
2018-06-17T06:05:48.352Z,69.90
2018-06-17T06:10:57.827Z,69.60
2018-06-17T06:13:26.501Z,68.60
2018-06-17T06:15:56.450Z,69.60
2018-06-17T06:18:26.271Z,70.60
2018-06-17T06:20:55.081Z,69.80
2018-06-17T06:23:23.778Z,70.30
2018-06-17T06:25:52.414Z,70.80
2018-06-17T06:28:21.132Z,70.80
2018-06-17T06:30:49.806Z,71.50
2018-06-17T06:33:19.033Z,69.50
2018-06-17T06:35:47.830Z,68.00
2018-06-17T06:38:17.062Z,68.60
2018-06-17T06:40:46.008Z,68.80
2018-06-17T06:43:14.747Z,68.70
2018-06-17T06:45:43.644Z,67.90
2018-06-17T06:48:16.494Z,67.30
2018-06-17T06:50:45.490Z,66.00
2018-06-17T06:53:14.285Z,66.50
2018-06-17T06:55:43.039Z,65.40
2018-06-17T06:58:11.818Z,64.50
2018-06-17T07:00:40.424Z,65.20
2018-06-17T07:03:21.039Z,65.80
2018-06-17T07:06:00.657Z,66.50
2018-06-17T07:08:40.525Z,66.00
2018-06-17T07:11:10.035Z,66.00
2018-06-17T07:13:38.646Z,66.00
2018-06-17T07:16:18.362Z,65.60
2018-06-17T09:13:47.788Z,55.80
2018-06-17T09:16:16.365Z,53.60
2018-06-17T09:18:45.032Z,54.40
2018-06-17T09:21:13.565Z,55.40
2018-06-17T09:23:42.103Z,57.00
2018-06-17T09:26:10.624Z,57.60
2018-06-17T09:28:39.744Z,55.50
2018-06-17T09:31:08.383Z,57.60
2018-06-17T09:33:36.873Z,55.00
2018-06-17T09:36:05.627Z,54.50
2018-06-17T09:38:34.229Z,54.10
2018-06-17T09:41:03.931Z,53.20
2018-06-17T09:43:32.348Z,53.40
2018-06-17T09:46:00.967Z,51.70
2018-06-17T09:48:33.319Z,53.10
2018-06-17T09:51:01.881Z,54.40
2018-06-17T09:53:34.629Z,53.80
2018-06-17T09:56:07.728Z,54.10
2018-06-17T09:58:50.266Z,54.10
2018-06-17T10:01:18.797Z,53.80
2018-06-17T10:03:47.328Z,52.50
2018-06-17T10:06:16.025Z,51.40
2018-06-17T10:08:44.742Z,51.30
2018-06-17T10:11:13.317Z,48.70
2018-06-17T10:13:45.423Z,50.30
2018-06-17T10:16:15.404Z,48.90
2018-06-17T10:18:45.555Z,50.00
2018-06-17T10:21:14.085Z,50.20
2018-06-17T10:23:46.996Z,50.70
2018-06-17T10:26:21.842Z,52.50
2018-06-17T10:28:50.399Z,52.30
2018-06-17T10:31:19.723Z,52.20
2018-06-17T10:33:52.515Z,51.20
2018-06-17T10:36:21.023Z,50.10
2018-06-17T10:38:52.747Z,48.70
2018-06-17T10:41:21.255Z,49.40
2018-06-17T10:43:51.288Z,51.90
2018-06-17T10:46:21.340Z,51.80
2018-06-17T10:48:49.801Z,48.50
2018-06-17T10:51:18.305Z,48.50
2018-06-17T10:53:46.866Z,48.30
2018-06-17T10:56:15.649Z,50.70
2018-06-17T10:58:44.106Z,46.50
2018-06-17T11:01:12.606Z,46.60
2018-06-17T11:03:41.133Z,46.00
2018-06-17T11:06:09.673Z,45.80
2018-06-17T11:08:38.149Z,46.70
2018-06-17T11:11:06.946Z,47.50
2018-06-17T11:13:35.774Z,47.50
2018-06-17T11:16:04.417Z,48.10
2018-06-17T11:18:32.911Z,48.00
2018-06-17T11:21:01.395Z,48.30
2018-06-17T11:23:29.948Z,47.50
2018-06-17T11:25:58.492Z,48.00
2018-06-17T11:28:27.094Z,49.20
2018-06-17T11:30:56.623Z,49.10
2018-06-17T11:33:25.127Z,51.70
2018-06-17T11:35:54.772Z,49.80
2018-06-17T11:38:29.759Z,48.40
2018-06-17T11:40:58.300Z,45.50
2018-06-17T11:43:27.092Z,46.90
2018-06-17T11:45:55.583Z,47.90
2018-06-17T11:48:24.937Z,48.10
2018-06-17T11:50:54.421Z,48.00
2018-06-17T11:53:30.778Z,49.60
2018-06-17T11:56:00.069Z,47.60
2018-06-17T11:58:29.510Z,47.30
2018-06-17T12:00:59.185Z,49.70
2018-06-17T12:03:29.341Z,51.90
2018-06-17T12:06:00.396Z,52.10
2018-06-17T12:08:31.733Z,52.90
2018-06-17T12:11:01.441Z,52.90
2018-06-17T12:13:31.206Z,47.70
2018-06-17T12:16:03.015Z,47.40
2018-06-17T12:18:33.607Z,46.90
2018-06-17T12:21:02.990Z,45.50
2018-06-17T12:23:34.368Z,46.70
2018-06-17T12:28:46.229Z,42.50
2018-06-17T12:31:16.677Z,42.80
2018-06-17T12:33:46.316Z,42.70
2018-06-17T12:36:14.991Z,44.50
2018-06-17T12:38:44.509Z,44.90
2018-06-17T12:41:14.309Z,44.90
2018-06-17T12:43:42.927Z,43.80
2018-06-17T12:46:12.260Z,44.60
2018-06-17T12:48:41.622Z,44.70
2018-06-17T12:51:10.738Z,43.90
2018-06-17T12:53:39.664Z,44.20
2018-06-17T12:56:08.558Z,44.20
2018-06-17T12:58:40.480Z,42.40
2018-06-17T13:01:09.118Z,43.00
2018-06-17T13:03:38.095Z,42.70
2018-06-17T13:06:07.420Z,41.60
2018-06-17T13:08:38.385Z,40.90
2018-06-17T13:11:07.367Z,40.50
2018-06-17T13:13:36.251Z,41.60
2018-06-17T13:16:05.843Z,42.10
2018-06-17T13:18:34.438Z,41.50
2018-06-17T13:21:03.849Z,43.10
2018-06-17T13:23:32.353Z,44.20
2018-06-17T13:26:07.495Z,45.80
2018-06-17T13:28:36.027Z,46.80
2018-06-17T13:31:10.929Z,46.00
2018-06-17T13:33:39.997Z,44.20
2018-06-17T13:36:08.815Z,45.70
2018-06-17T13:38:41.678Z,44.60
2018-06-17T13:41:12.822Z,45.00
2018-06-17T13:43:44.246Z,44.80
2018-06-17T13:46:17.426Z,46.80
2018-06-17T13:48:47.228Z,46.20
2018-06-17T13:51:22.517Z,46.00
2018-06-17T13:53:59.092Z,47.10
2018-06-17T13:56:30.192Z,46.50
2018-06-17T13:59:02.590Z,46.80
2018-06-17T14:01:34.681Z,45.90
2018-06-17T14:04:03.625Z,45.70
2018-06-17T14:06:33.364Z,44.20
2018-06-17T14:09:06.879Z,44.00
2018-06-17T14:11:35.854Z,43.60
2018-06-17T14:14:13.344Z,43.60
2018-06-17T14:16:57.547Z,43.10
2018-06-17T14:19:48.307Z,43.10
2018-06-17T14:22:28.792Z,44.50
2018-06-17T14:25:02.433Z,46.20
2018-06-17T14:27:46.744Z,46.90
2018-06-17T14:30:36.100Z,48.00
2018-06-17T14:33:12.607Z,48.70
2018-06-17T14:35:46.328Z,50.20
2018-06-17T14:38:25.948Z,50.90
2018-06-17T14:41:03.828Z,50.90
2018-06-17T14:43:41.491Z,50.80
2018-06-17T14:46:18.858Z,50.80
2018-06-17T14:49:05.288Z,50.80
2018-06-17T14:51:39.715Z,51.10
2018-06-17T14:54:08.526Z,53.20
2018-06-17T14:56:37.129Z,52.70
2018-06-17T14:59:07.034Z,52.90
2018-06-17T15:01:35.629Z,53.00
2018-06-17T15:04:04.220Z,53.60
2018-06-17T15:06:33.684Z,53.90
2018-06-17T15:09:02.260Z,54.70
2018-06-17T15:11:30.857Z,55.00
2018-06-17T15:13:59.675Z,55.80
2018-06-17T15:16:28.290Z,55.40
2018-06-17T15:18:56.887Z,55.40
2018-06-17T15:21:27.246Z,54.10
2018-06-17T15:23:55.946Z,52.60
2018-06-17T15:26:24.493Z,48.50
2018-06-17T15:28:53.035Z,48.20
2018-06-17T15:31:26.845Z,45.90
2018-06-17T15:34:00.594Z,46.20
2018-06-17T15:36:34.581Z,47.80
2018-06-17T15:39:08.887Z,47.60
2018-06-17T15:41:37.457Z,48.10
2018-06-17T15:44:06.052Z,49.30
2018-06-17T15:46:36.032Z,51.40
2018-06-17T15:49:04.624Z,49.90
2018-06-17T15:51:33.328Z,52.10
2018-06-17T15:54:02.128Z,52.70
2018-06-17T15:56:31.239Z,51.70
2018-06-17T15:59:00.702Z,51.70
2018-06-17T16:01:29.426Z,53.30
2018-06-17T16:04:02.026Z,53.30
2018-06-17T16:06:30.575Z,54.00
2018-06-17T16:09:00.792Z,53.10
2018-06-17T16:11:29.343Z,53.20
2018-06-17T16:14:09.520Z,53.30
2018-06-17T16:16:43.468Z,54.40
2018-06-17T16:19:17.362Z,55.50
2018-06-17T16:21:46.079Z,56.90
2018-06-17T16:26:43.788Z,58.20
2018-06-17T16:29:12.345Z,58.80
2018-06-17T16:31:41.942Z,58.40
2018-06-17T16:34:10.456Z,57.50
2018-06-17T16:36:39.462Z,58.60
2018-06-17T16:39:10.030Z,58.20
2018-06-17T16:41:38.597Z,58.70
2018-06-17T16:44:07.570Z,58.90
2018-06-17T16:46:36.699Z,59.40
2018-06-17T16:49:05.396Z,60.50
2018-06-17T16:51:39.037Z,60.00
2018-06-17T16:54:12.885Z,59.70
2018-06-17T16:56:47.822Z,60.10
2018-06-17T16:59:21.610Z,59.80
2018-06-17T17:01:50.804Z,59.90
2018-06-17T17:04:19.532Z,60.20
2018-06-17T17:06:49.381Z,60.40
2018-06-17T17:09:18.597Z,59.50
2018-06-17T17:11:50.434Z,60.50
2018-06-17T17:14:28.405Z,61.40
2018-06-17T17:16:57.546Z,61.20
2018-06-17T17:19:27.001Z,60.50
2018-06-17T17:21:56.045Z,60.00
2018-06-17T17:24:24.760Z,59.80
2018-06-17T17:26:53.268Z,60.90
2018-06-17T17:29:21.878Z,60.00
2018-06-17T17:31:55.576Z,60.10
2018-06-17T17:34:29.275Z,59.60
2018-06-17T17:37:03.177Z,58.80
2018-06-17T17:39:37.053Z,57.00
2018-06-17T17:42:05.580Z,57.40
2018-06-17T17:44:39.554Z,56.80
2018-06-17T17:47:13.344Z,58.00
2018-06-17T17:49:41.891Z,57.60
2018-06-17T17:52:10.632Z,59.00
2018-06-17T17:54:39.183Z,57.30
2018-06-17T17:57:07.954Z,57.20
2018-06-17T17:59:36.499Z,58.00
2018-06-17T18:02:05.908Z,59.90
2018-06-17T18:04:34.499Z,61.20
2018-06-17T18:07:03.536Z,62.40
2018-06-17T18:09:33.770Z,63.90
2018-06-17T18:12:02.427Z,64.30
2018-06-17T18:14:30.948Z,65.00
2018-06-17T18:16:59.871Z,65.30
2018-06-17T18:19:29.539Z,66.70
2018-06-17T18:21:58.410Z,67.20
2018-06-17T18:24:27.102Z,68.40
2018-06-17T18:27:01.130Z,68.70
2018-06-17T18:29:34.937Z,69.00
2018-06-17T18:32:09.277Z,69.50
2018-06-17T18:34:43.109Z,70.10
2018-06-17T18:37:11.715Z,70.60
2018-06-17T18:39:40.309Z,71.40
2018-06-17T18:42:08.924Z,72.30
2018-06-17T18:44:37.514Z,72.30
2018-06-17T18:47:06.166Z,72.50
2018-06-17T18:49:34.822Z,72.20
2018-06-17T18:52:04.160Z,71.70
2018-06-17T18:54:32.862Z,72.40
2018-06-17T18:57:02.947Z,72.60
2018-06-17T18:59:31.943Z,73.30
2018-06-17T19:02:00.573Z,73.00
2018-06-17T19:04:29.329Z,74.00
2018-06-17T19:06:58.058Z,74.70
2018-06-17T19:09:31.802Z,73.30
2018-06-17T19:12:06.998Z,74.80
2018-06-17T19:14:44.643Z,74.30
2018-06-17T19:17:18.352Z,74.30
2018-06-17T19:19:46.964Z,74.90
2018-06-17T19:22:16.541Z,75.40
2018-06-17T19:24:45.169Z,75.90
2018-06-17T19:27:13.923Z,76.20
2018-06-17T19:29:42.733Z,76.70
2018-06-17T19:32:11.595Z,76.90
2018-06-17T19:34:41.555Z,76.00
2018-06-17T19:37:10.392Z,74.50
2018-06-17T19:39:39.499Z,73.60
2018-06-17T19:42:08.440Z,73.20
2018-06-17T19:44:37.052Z,72.90
2018-06-17T19:47:06.975Z,72.80
2018-06-17T19:49:40.727Z,73.40
2018-06-17T19:52:14.793Z,72.90
2018-06-17T19:54:48.723Z,73.10
2018-06-17T19:57:24.044Z,74.90
2018-06-17T19:59:58.474Z,74.80
2018-06-17T20:02:27.795Z,74.20
2018-06-17T20:04:56.738Z,74.50
2018-06-17T20:07:27.486Z,74.70
2018-06-17T20:09:56.071Z,74.30
2018-06-17T20:12:25.226Z,74.80
2018-06-17T20:14:53.923Z,74.40
2018-06-17T20:17:22.941Z,75.20
2018-06-17T20:19:51.554Z,76.30
2018-06-17T20:22:32.458Z,76.30
2018-06-17T20:25:06.628Z,76.20
2018-06-17T20:27:35.417Z,76.80
2018-06-17T20:30:05.748Z,76.90
2018-06-17T20:32:40.566Z,78.20
2018-06-17T20:35:14.328Z,77.30
2018-06-17T20:37:49.163Z,78.10
2018-06-17T20:40:22.976Z,77.80
2018-06-17T20:43:03.667Z,77.90
2018-06-17T20:45:32.284Z,78.40
2018-06-17T20:48:00.840Z,78.10
2018-06-17T20:50:29.351Z,77.50
2018-06-17T20:52:57.856Z,77.50
2018-06-17T20:55:26.422Z,77.70
2018-06-17T20:57:55.229Z,77.10
